Terminal Aerodrome Forecast
Issued by NWS Los Angeles, CA

Home | Current Version | Previous Version | Text Only | Print | Product List | Glossary On
Versions: 1 2 3 4 5 6 7 8 9 10 11 12 13 14 15 16 17 18 19 20 21 22 23
654
FTUS46 KLOX 302047 AAD
TAFSMX
TAF AMD
KSMX 302047Z 3021/3118 31015G25KT P6SM SCT250
     FM302200 32025G35KT P6SM SKC
     FM310300 32015KT P6SM SKC
     FM311000 32010KT 6SM BR SKC
     FM311600 32008KT P6SM SKC=

USA.gov is the U.S. government's official web portal to all federal, state and local government web resources and services.